sensor_id;sensor_type;location;lat;lon;timestamp;P1;durP1;ratioP1;P2;durP2;ratioP2
23768;SDS011;12064;50.890;5.424;2023-03-23T00:08:49;1.55;;;1.30;;
23768;SDS011;12064;50.890;5.424;2023-03-23T00:17:46;1.10;;;1.00;;
23768;SDS011;12064;50.890;5.424;2023-03-23T00:26:38;1.55;;;1.23;;
23768;SDS011;12064;50.890;5.424;2023-03-23T00:35:30;2.40;;;1.23;;
23768;SDS011;12064;50.890;5.424;2023-03-23T00:44:21;3.15;;;1.13;;
23768;SDS011;12064;50.890;5.424;2023-03-23T00:53:13;1.65;;;1.27;;
23768;SDS011;12064;50.890;5.424;2023-03-23T01:02:05;4.00;;;1.20;;
23768;SDS011;12064;50.890;5.424;2023-03-23T01:11:01;1.58;;;1.23;;
23768;SDS011;12064;50.890;5.424;2023-03-23T01:19:56;1.55;;;1.08;;
23768;SDS011;12064;50.890;5.424;2023-03-23T01:28:47;2.08;;;1.38;;
23768;SDS011;12064;50.890;5.424;2023-03-23T01:37:38;2.30;;;1.27;;
23768;SDS011;12064;50.890;5.424;2023-03-23T01:46:33;1.83;;;1.20;;
23768;SDS011;12064;50.890;5.424;2023-03-23T01:55:25;1.42;;;1.20;;
23768;SDS011;12064;50.890;5.424;2023-03-23T02:04:17;1.73;;;0.95;;
23768;SDS011;12064;50.890;5.424;2023-03-23T02:13:09;1.90;;;1.15;;
23768;SDS011;12064;50.890;5.424;2023-03-23T02:31:53;1.65;;;1.00;;
23768;SDS011;12064;50.890;5.424;2023-03-23T02:41:05;1.83;;;1.10;;
23768;SDS011;12064;50.890;5.424;2023-03-23T02:49:57;1.00;;;0.95;;
23768;SDS011;12064;50.890;5.424;2023-03-23T02:58:49;2.10;;;1.00;;
23768;SDS011;12064;50.890;5.424;2023-03-23T03:17:19;1.83;;;1.00;;
23768;SDS011;12064;50.890;5.424;2023-03-23T03:26:13;2.45;;;1.13;;
23768;SDS011;12064;50.890;5.424;2023-03-23T03:35:07;1.60;;;1.27;;
23768;SDS011;12064;50.890;5.424;2023-03-23T03:43:59;1.98;;;1.20;;
23768;SDS011;12064;50.890;5.424;2023-03-23T03:52:49;1.38;;;1.02;;
23768;SDS011;12064;50.890;5.424;2023-03-23T04:01:40;1.20;;;1.10;;
23768;SDS011;12064;50.890;5.424;2023-03-23T04:10:31;1.52;;;1.10;;
23768;SDS011;12064;50.890;5.424;2023-03-23T04:19:23;0.88;;;0.88;;
23768;SDS011;12064;50.890;5.424;2023-03-23T04:28:14;2.83;;;0.90;;
23768;SDS011;12064;50.890;5.424;2023-03-23T04:37:06;1.00;;;0.80;;
23768;SDS011;12064;50.890;5.424;2023-03-23T04:45:58;1.13;;;0.90;;
23768;SDS011;12064;50.890;5.424;2023-03-23T04:54:51;1.35;;;0.80;;
23768;SDS011;12064;50.890;5.424;2023-03-23T05:03:42;1.10;;;0.95;;
23768;SDS011;12064;50.890;5.424;2023-03-23T05:12:33;1.45;;;1.00;;
23768;SDS011;12064;50.890;5.424;2023-03-23T05:21:24;1.42;;;0.90;;
23768;SDS011;12064;50.890;5.424;2023-03-23T05:30:16;1.95;;;0.98;;
23768;SDS011;12064;50.890;5.424;2023-03-23T05:39:06;1.08;;;0.98;;
23768;SDS011;12064;50.890;5.424;2023-03-23T05:47:59;1.10;;;0.90;;
23768;SDS011;12064;50.890;5.424;2023-03-23T05:56:50;1.48;;;1.00;;
23768;SDS011;12064;50.890;5.424;2023-03-23T06:05:44;2.35;;;0.85;;
23768;SDS011;12064;50.890;5.424;2023-03-23T06:14:36;1.98;;;1.05;;
23768;SDS011;12064;50.890;5.424;2023-03-23T06:23:27;1.25;;;0.90;;
23768;SDS011;12064;50.890;5.424;2023-03-23T06:32:19;2.85;;;0.95;;
23768;SDS011;12064;50.890;5.424;2023-03-23T06:41:09;2.13;;;1.10;;
23768;SDS011;12064;50.890;5.424;2023-03-23T06:50:01;2.80;;;1.00;;
23768;SDS011;12064;50.890;5.424;2023-03-23T06:58:52;1.27;;;0.80;;
23768;SDS011;12064;50.890;5.424;2023-03-23T07:07:42;2.95;;;1.13;;
23768;SDS011;12064;50.890;5.424;2023-03-23T07:16:33;1.15;;;0.90;;
23768;SDS011;12064;50.890;5.424;2023-03-23T07:25:24;3.47;;;1.00;;
23768;SDS011;12064;50.890;5.424;2023-03-23T07:34:14;2.67;;;1.10;;
23768;SDS011;12064;50.890;5.424;2023-03-23T07:43:05;7.10;;;2.23;;
23768;SDS011;12064;50.890;5.424;2023-03-23T07:51:57;5.88;;;2.00;;
23768;SDS011;12064;50.890;5.424;2023-03-23T08:00:47;8.15;;;2.50;;
23768;SDS011;12064;50.890;5.424;2023-03-23T08:09:38;8.70;;;2.05;;
23768;SDS011;12064;50.890;5.424;2023-03-23T08:18:30;5.82;;;2.25;;
23768;SDS011;12064;50.890;5.424;2023-03-23T08:27:21;5.07;;;2.00;;
23768;SDS011;12064;50.890;5.424;2023-03-23T08:36:12;5.63;;;2.00;;
23768;SDS011;12064;50.890;5.424;2023-03-23T08:45:06;3.85;;;1.58;;
23768;SDS011;12064;50.890;5.424;2023-03-23T08:53:58;6.38;;;2.00;;
23768;SDS011;12064;50.890;5.424;2023-03-23T09:02:50;5.90;;;2.40;;
23768;SDS011;12064;50.890;5.424;2023-03-23T09:11:42;7.78;;;2.15;;
23768;SDS011;12064;50.890;5.424;2023-03-23T09:20:33;6.87;;;2.60;;
23768;SDS011;12064;50.890;5.424;2023-03-23T09:29:24;5.20;;;2.25;;
23768;SDS011;12064;50.890;5.424;2023-03-23T09:38:16;5.22;;;1.83;;
23768;SDS011;12064;50.890;5.424;2023-03-23T09:47:17;4.53;;;1.97;;
23768;SDS011;12064;50.890;5.424;2023-03-23T09:56:10;4.45;;;2.38;;
23768;SDS011;12064;50.890;5.424;2023-03-23T10:14:30;4.25;;;2.00;;
23768;SDS011;12064;50.890;5.424;2023-03-23T10:32:39;6.68;;;1.92;;
23768;SDS011;12064;50.890;5.424;2023-03-23T10:41:32;4.80;;;1.95;;
23768;SDS011;12064;50.890;5.424;2023-03-23T10:50:27;3.27;;;1.63;;
23768;SDS011;12064;50.890;5.424;2023-03-23T11:08:20;2.83;;;1.60;;
23768;SDS011;12064;50.890;5.424;2023-03-23T11:17:21;2.58;;;1.40;;
23768;SDS011;12064;50.890;5.424;2023-03-23T11:35:15;3.33;;;1.70;;
23768;SDS011;12064;50.890;5.424;2023-03-23T11:44:10;3.85;;;1.67;;
23768;SDS011;12064;50.890;5.424;2023-03-23T12:02:06;2.97;;;1.70;;
23768;SDS011;12064;50.890;5.424;2023-03-23T12:47:48;3.05;;;1.75;;
23768;SDS011;12064;50.890;5.424;2023-03-23T13:05:57;2.47;;;1.52;;
23768;SDS011;12064;50.890;5.424;2023-03-23T13:24:14;2.92;;;1.80;;
23768;SDS011;12064;50.890;5.424;2023-03-23T13:33:11;3.43;;;1.80;;
23768;SDS011;12064;50.890;5.424;2023-03-23T13:50:55;3.05;;;1.70;;
23768;SDS011;12064;50.890;5.424;2023-03-23T13:59:55;3.25;;;1.40;;
23768;SDS011;12064;50.890;5.424;2023-03-23T14:08:48;2.70;;;1.60;;
23768;SDS011;12064;50.890;5.424;2023-03-23T14:17:43;2.65;;;1.83;;
23768;SDS011;12064;50.890;5.424;2023-03-23T14:26:34;1.88;;;1.38;;
23768;SDS011;12064;50.890;5.424;2023-03-23T14:35:27;3.05;;;1.83;;
23768;SDS011;12064;50.890;5.424;2023-03-23T14:44:32;2.75;;;1.50;;
23768;SDS011;12064;50.890;5.424;2023-03-23T14:53:29;2.55;;;1.38;;
23768;SDS011;12064;50.890;5.424;2023-03-23T15:02:35;2.60;;;1.50;;
23768;SDS011;12064;50.890;5.424;2023-03-23T15:11:35;4.40;;;1.83;;
23768;SDS011;12064;50.890;5.424;2023-03-23T15:20:29;2.35;;;1.60;;
23768;SDS011;12064;50.890;5.424;2023-03-23T15:29:22;2.83;;;1.52;;
23768;SDS011;12064;50.890;5.424;2023-03-23T15:47:20;2.83;;;1.55;;
23768;SDS011;12064;50.890;5.424;2023-03-23T15:56:12;2.90;;;1.23;;
23768;SDS011;12064;50.890;5.424;2023-03-23T16:05:04;2.10;;;1.30;;
23768;SDS011;12064;50.890;5.424;2023-03-23T16:13:56;2.97;;;1.27;;
23768;SDS011;12064;50.890;5.424;2023-03-23T16:22:47;3.78;;;1.50;;
23768;SDS011;12064;50.890;5.424;2023-03-23T16:31:39;2.90;;;1.52;;
23768;SDS011;12064;50.890;5.424;2023-03-23T16:40:30;3.90;;;1.77;;
23768;SDS011;12064;50.890;5.424;2023-03-23T16:49:22;1.85;;;1.35;;
23768;SDS011;12064;50.890;5.424;2023-03-23T16:58:13;3.20;;;1.63;;
23768;SDS011;12064;50.890;5.424;2023-03-23T17:07:05;2.95;;;1.40;;
23768;SDS011;12064;50.890;5.424;2023-03-23T17:15:55;2.63;;;1.50;;
23768;SDS011;12064;50.890;5.424;2023-03-23T17:24:46;2.08;;;1.30;;
23768;SDS011;12064;50.890;5.424;2023-03-23T17:33:37;2.05;;;1.20;;
23768;SDS011;12064;50.890;5.424;2023-03-23T17:42:28;2.70;;;1.47;;
23768;SDS011;12064;50.890;5.424;2023-03-23T17:51:19;2.40;;;1.27;;
23768;SDS011;12064;50.890;5.424;2023-03-23T18:00:10;3.60;;;1.33;;
23768;SDS011;12064;50.890;5.424;2023-03-23T18:09:01;3.00;;;1.40;;
23768;SDS011;12064;50.890;5.424;2023-03-23T18:17:52;2.80;;;1.50;;
23768;SDS011;12064;50.890;5.424;2023-03-23T18:26:43;2.03;;;1.65;;
23768;SDS011;12064;50.890;5.424;2023-03-23T18:35:34;2.47;;;1.50;;
23768;SDS011;12064;50.890;5.424;2023-03-23T18:44:25;3.65;;;1.50;;
23768;SDS011;12064;50.890;5.424;2023-03-23T18:53:15;2.75;;;1.60;;
23768;SDS011;12064;50.890;5.424;2023-03-23T19:02:06;3.95;;;1.77;;
23768;SDS011;12064;50.890;5.424;2023-03-23T19:10:59;2.30;;;1.70;;
23768;SDS011;12064;50.890;5.424;2023-03-23T19:19:52;3.42;;;1.75;;
23768;SDS011;12064;50.890;5.424;2023-03-23T19:28:42;3.33;;;1.67;;
23768;SDS011;12064;50.890;5.424;2023-03-23T19:37:33;2.50;;;1.37;;
23768;SDS011;12064;50.890;5.424;2023-03-23T19:46:24;2.50;;;1.60;;
23768;SDS011;12064;50.890;5.424;2023-03-23T19:55:15;2.55;;;1.38;;
23768;SDS011;12064;50.890;5.424;2023-03-23T20:04:07;1.90;;;1.30;;
23768;SDS011;12064;50.890;5.424;2023-03-23T20:12:59;3.17;;;1.55;;
23768;SDS011;12064;50.890;5.424;2023-03-23T20:21:50;2.53;;;1.42;;
23768;SDS011;12064;50.890;5.424;2023-03-23T20:30:41;2.35;;;1.63;;
23768;SDS011;12064;50.890;5.424;2023-03-23T20:39:32;2.70;;;1.73;;
23768;SDS011;12064;50.890;5.424;2023-03-23T20:48:29;1.95;;;1.58;;
23768;SDS011;12064;50.890;5.424;2023-03-23T20:57:23;1.90;;;1.48;;
23768;SDS011;12064;50.890;5.424;2023-03-23T21:06:13;2.25;;;1.50;;
23768;SDS011;12064;50.890;5.424;2023-03-23T21:15:05;2.45;;;1.52;;
23768;SDS011;12064;50.890;5.424;2023-03-23T21:23:57;2.22;;;1.50;;
23768;SDS011;12064;50.890;5.424;2023-03-23T21:32:48;2.42;;;1.50;;
23768;SDS011;12064;50.890;5.424;2023-03-23T21:41:39;2.83;;;1.70;;
23768;SDS011;12064;50.890;5.424;2023-03-23T21:50:34;1.77;;;1.40;;
23768;SDS011;12064;50.890;5.424;2023-03-23T21:59:31;1.60;;;1.33;;
23768;SDS011;12064;50.890;5.424;2023-03-23T22:08:22;2.30;;;1.42;;
23768;SDS011;12064;50.890;5.424;2023-03-23T22:17:15;3.08;;;1.52;;
23768;SDS011;12064;50.890;5.424;2023-03-23T22:26:06;2.22;;;1.33;;
23768;SDS011;12064;50.890;5.424;2023-03-23T22:35:01;2.17;;;1.40;;
23768;SDS011;12064;50.890;5.424;2023-03-23T22:43:53;2.50;;;1.40;;
23768;SDS011;12064;50.890;5.424;2023-03-23T22:52:44;2.47;;;1.30;;
23768;SDS011;12064;50.890;5.424;2023-03-23T23:01:35;1.25;;;1.10;;
23768;SDS011;12064;50.890;5.424;2023-03-23T23:10:26;2.28;;;1.30;;
23768;SDS011;12064;50.890;5.424;2023-03-23T23:19:17;1.75;;;1.33;;
23768;SDS011;12064;50.890;5.424;2023-03-23T23:28:07;1.77;;;1.30;;
23768;SDS011;12064;50.890;5.424;2023-03-23T23:36:58;2.60;;;1.58;;
23768;SDS011;12064;50.890;5.424;2023-03-23T23:45:49;3.50;;;1.33;;
23768;SDS011;12064;50.890;5.424;2023-03-23T23:54:40;2.45;;;1.30;;
